sensor_id;sensor_type;location;lat;lon;timestamp;P1;durP1;ratioP1;P2;durP2;ratioP2
6392;SDS011;3229;42.674;23.282;2023-03-01T00:01:54;3.67;;;3.37;;
6392;SDS011;3229;42.674;23.282;2023-03-01T00:04:21;3.37;;;3.07;;
6392;SDS011;3229;42.674;23.282;2023-03-01T00:06:47;3.07;;;2.87;;
6392;SDS011;3229;42.674;23.282;2023-03-01T00:09:16;3.10;;;2.80;;
6392;SDS011;3229;42.674;23.282;2023-03-01T00:11:43;3.40;;;2.80;;
6392;SDS011;3229;42.674;23.282;2023-03-01T00:14:10;3.60;;;3.23;;
6392;SDS011;3229;42.674;23.282;2023-03-01T00:16:37;2.73;;;2.33;;
6392;SDS011;3229;42.674;23.282;2023-03-01T00:19:06;3.10;;;2.90;;
6392;SDS011;3229;42.674;23.282;2023-03-01T00:21:34;3.13;;;2.70;;
6392;SDS011;3229;42.674;23.282;2023-03-01T00:24:01;3.30;;;3.00;;
6392;SDS011;3229;42.674;23.282;2023-03-01T00:26:29;4.03;;;3.63;;
6392;SDS011;3229;42.674;23.282;2023-03-01T00:28:56;3.07;;;2.50;;
6392;SDS011;3229;42.674;23.282;2023-03-01T00:31:24;3.10;;;2.80;;
6392;SDS011;3229;42.674;23.282;2023-03-01T00:33:52;2.80;;;2.60;;
6392;SDS011;3229;42.674;23.282;2023-03-01T00:36:22;2.60;;;2.40;;
6392;SDS011;3229;42.674;23.282;2023-03-01T00:38:50;2.80;;;2.60;;
6392;SDS011;3229;42.674;23.282;2023-03-01T00:41:18;2.77;;;2.50;;
6392;SDS011;3229;42.674;23.282;2023-03-01T00:43:49;2.23;;;2.13;;
6392;SDS011;3229;42.674;23.282;2023-03-01T00:46:17;2.80;;;2.60;;
6392;SDS011;3229;42.674;23.282;2023-03-01T00:48:45;2.87;;;2.67;;
6392;SDS011;3229;42.674;23.282;2023-03-01T00:51:13;2.37;;;2.17;;
6392;SDS011;3229;42.674;23.282;2023-03-01T00:53:41;2.97;;;2.77;;
6392;SDS011;3229;42.674;23.282;2023-03-01T00:56:09;2.63;;;2.43;;
6392;SDS011;3229;42.674;23.282;2023-03-01T00:58:38;2.30;;;2.20;;
6392;SDS011;3229;42.674;23.282;2023-03-01T01:01:11;2.30;;;2.20;;
6392;SDS011;3229;42.674;23.282;2023-03-01T01:03:43;2.60;;;2.40;;
6392;SDS011;3229;42.674;23.282;2023-03-01T01:06:15;2.57;;;2.37;;
6392;SDS011;3229;42.674;23.282;2023-03-01T01:08:43;2.40;;;2.20;;
6392;SDS011;3229;42.674;23.282;2023-03-01T01:11:10;2.63;;;2.40;;
6392;SDS011;3229;42.674;23.282;2023-03-01T01:13:38;2.30;;;2.20;;
6392;SDS011;3229;42.674;23.282;2023-03-01T01:16:05;2.40;;;2.20;;
6392;SDS011;3229;42.674;23.282;2023-03-01T01:18:34;2.07;;;1.97;;
6392;SDS011;3229;42.674;23.282;2023-03-01T01:21:05;2.17;;;2.03;;
6392;SDS011;3229;42.674;23.282;2023-03-01T01:23:32;2.40;;;2.17;;
6392;SDS011;3229;42.674;23.282;2023-03-01T01:26:03;2.10;;;2.00;;
6392;SDS011;3229;42.674;23.282;2023-03-01T01:28:30;2.20;;;2.10;;
6392;SDS011;3229;42.674;23.282;2023-03-01T01:30:57;2.10;;;2.00;;
6392;SDS011;3229;42.674;23.282;2023-03-01T01:33:24;1.93;;;1.77;;
6392;SDS011;3229;42.674;23.282;2023-03-01T01:35:52;2.20;;;2.00;;
6392;SDS011;3229;42.674;23.282;2023-03-01T01:38:19;2.20;;;2.00;;
6392;SDS011;3229;42.674;23.282;2023-03-01T01:40:47;1.87;;;1.77;;
6392;SDS011;3229;42.674;23.282;2023-03-01T01:43:16;1.90;;;1.80;;
6392;SDS011;3229;42.674;23.282;2023-03-01T01:45:46;2.00;;;1.90;;
6392;SDS011;3229;42.674;23.282;2023-03-01T01:48:14;1.80;;;1.70;;
6392;SDS011;3229;42.674;23.282;2023-03-01T01:50:45;2.00;;;1.90;;
6392;SDS011;3229;42.674;23.282;2023-03-01T01:53:24;1.80;;;1.70;;
6392;SDS011;3229;42.674;23.282;2023-03-01T01:55:53;1.97;;;1.87;;
6392;SDS011;3229;42.674;23.282;2023-03-01T01:58:25;1.80;;;1.70;;
6392;SDS011;3229;42.674;23.282;2023-03-01T02:00:53;2.07;;;1.80;;
6392;SDS011;3229;42.674;23.282;2023-03-01T02:03:22;1.73;;;1.63;;
6392;SDS011;3229;42.674;23.282;2023-03-01T02:05:55;1.83;;;1.73;;
6392;SDS011;3229;42.674;23.282;2023-03-01T02:08:28;1.70;;;1.60;;
6392;SDS011;3229;42.674;23.282;2023-03-01T02:10:57;1.70;;;1.60;;
6392;SDS011;3229;42.674;23.282;2023-03-01T02:13:25;1.73;;;1.63;;
6392;SDS011;3229;42.674;23.282;2023-03-01T02:15:52;1.80;;;1.70;;
6392;SDS011;3229;42.674;23.282;2023-03-01T02:18:20;1.70;;;1.60;;
6392;SDS011;3229;42.674;23.282;2023-03-01T02:20:52;1.60;;;1.60;;
6392;SDS011;3229;42.674;23.282;2023-03-01T02:23:25;1.70;;;1.60;;
6392;SDS011;3229;42.674;23.282;2023-03-01T02:25:56;1.70;;;1.60;;
6392;SDS011;3229;42.674;23.282;2023-03-01T02:28:32;1.73;;;1.63;;
6392;SDS011;3229;42.674;23.282;2023-03-01T02:31:01;1.70;;;1.60;;
6392;SDS011;3229;42.674;23.282;2023-03-01T02:33:49;1.40;;;1.40;;
6392;SDS011;3229;42.674;23.282;2023-03-01T02:36:18;1.70;;;1.60;;
6392;SDS011;3229;42.674;23.282;2023-03-01T02:38:46;1.50;;;1.40;;
6392;SDS011;3229;42.674;23.282;2023-03-01T02:41:16;1.77;;;1.67;;
6392;SDS011;3229;42.674;23.282;2023-03-01T02:43:46;1.50;;;1.50;;
6392;SDS011;3229;42.674;23.282;2023-03-01T02:46:14;1.57;;;1.50;;
6392;SDS011;3229;42.674;23.282;2023-03-01T02:48:43;1.57;;;1.50;;
6392;SDS011;3229;42.674;23.282;2023-03-01T02:51:16;1.57;;;1.50;;
6392;SDS011;3229;42.674;23.282;2023-03-01T02:53:54;1.40;;;1.40;;
6392;SDS011;3229;42.674;23.282;2023-03-01T02:56:29;1.90;;;1.80;;
6392;SDS011;3229;42.674;23.282;2023-03-01T02:58:58;1.50;;;1.50;;
6392;SDS011;3229;42.674;23.282;2023-03-01T03:01:26;1.77;;;1.67;;
6392;SDS011;3229;42.674;23.282;2023-03-01T03:04:02;1.40;;;1.40;;
6392;SDS011;3229;42.674;23.282;2023-03-01T03:06:29;1.40;;;1.40;;
6392;SDS011;3229;42.674;23.282;2023-03-01T03:08:56;1.87;;;1.57;;
6392;SDS011;3229;42.674;23.282;2023-03-01T03:11:23;1.50;;;1.50;;
6392;SDS011;3229;42.674;23.282;2023-03-01T03:13:50;1.77;;;1.67;;
6392;SDS011;3229;42.674;23.282;2023-03-01T03:16:18;1.70;;;1.60;;
6392;SDS011;3229;42.674;23.282;2023-03-01T03:18:45;1.60;;;1.50;;
6392;SDS011;3229;42.674;23.282;2023-03-01T03:21:13;2.23;;;1.90;;
6392;SDS011;3229;42.674;23.282;2023-03-01T03:23:39;1.80;;;1.70;;
6392;SDS011;3229;42.674;23.282;2023-03-01T03:26:06;1.70;;;1.60;;
6392;SDS011;3229;42.674;23.282;2023-03-01T03:28:34;2.00;;;1.90;;
6392;SDS011;3229;42.674;23.282;2023-03-01T03:31:05;1.80;;;1.70;;
6392;SDS011;3229;42.674;23.282;2023-03-01T03:33:34;2.40;;;1.87;;
6392;SDS011;3229;42.674;23.282;2023-03-01T03:36:01;1.93;;;1.83;;
6392;SDS011;3229;42.674;23.282;2023-03-01T03:38:27;1.80;;;1.70;;
6392;SDS011;3229;42.674;23.282;2023-03-01T03:40:59;2.10;;;2.00;;
6392;SDS011;3229;42.674;23.282;2023-03-01T03:43:29;1.70;;;1.60;;
6392;SDS011;3229;42.674;23.282;2023-03-01T03:45:56;2.23;;;2.07;;
6392;SDS011;3229;42.674;23.282;2023-03-01T03:48:23;1.87;;;1.60;;
6392;SDS011;3229;42.674;23.282;2023-03-01T03:50:52;2.27;;;2.17;;
6392;SDS011;3229;42.674;23.282;2023-03-01T03:53:21;2.37;;;2.03;;
6392;SDS011;3229;42.674;23.282;2023-03-01T03:55:49;1.83;;;1.73;;
6392;SDS011;3229;42.674;23.282;2023-03-01T03:58:16;1.93;;;1.83;;
6392;SDS011;3229;42.674;23.282;2023-03-01T04:00:44;1.93;;;1.83;;
6392;SDS011;3229;42.674;23.282;2023-03-01T04:03:13;2.00;;;1.90;;
6392;SDS011;3229;42.674;23.282;2023-03-01T04:05:41;2.10;;;2.00;;
6392;SDS011;3229;42.674;23.282;2023-03-01T04:08:09;2.20;;;2.10;;
6392;SDS011;3229;42.674;23.282;2023-03-01T04:10:37;2.20;;;2.10;;
6392;SDS011;3229;42.674;23.282;2023-03-01T04:13:05;2.23;;;2.03;;
6392;SDS011;3229;42.674;23.282;2023-03-01T04:15:34;2.10;;;2.00;;
6392;SDS011;3229;42.674;23.282;2023-03-01T04:18:01;2.00;;;1.90;;
6392;SDS011;3229;42.674;23.282;2023-03-01T04:20:29;2.50;;;2.30;;
6392;SDS011;3229;42.674;23.282;2023-03-01T04:22:59;2.20;;;2.10;;
6392;SDS011;3229;42.674;23.282;2023-03-01T04:25:36;2.27;;;2.07;;
6392;SDS011;3229;42.674;23.282;2023-03-01T04:28:04;2.40;;;2.20;;
6392;SDS011;3229;42.674;23.282;2023-03-01T04:30:31;2.20;;;2.10;;
6392;SDS011;3229;42.674;23.282;2023-03-01T04:33:01;3.60;;;2.00;;
6392;SDS011;3229;42.674;23.282;2023-03-01T04:35:29;2.20;;;2.00;;
6392;SDS011;3229;42.674;23.282;2023-03-01T04:37:56;2.00;;;1.80;;
6392;SDS011;3229;42.674;23.282;2023-03-01T04:40:23;2.13;;;1.93;;
6392;SDS011;3229;42.674;23.282;2023-03-01T04:42:52;2.10;;;2.00;;
6392;SDS011;3229;42.674;23.282;2023-03-01T04:45:19;2.20;;;2.10;;
6392;SDS011;3229;42.674;23.282;2023-03-01T04:47:46;2.97;;;2.03;;
6392;SDS011;3229;42.674;23.282;2023-03-01T04:50:14;2.10;;;2.00;;
6392;SDS011;3229;42.674;23.282;2023-03-01T04:52:42;2.13;;;1.93;;
6392;SDS011;3229;42.674;23.282;2023-03-01T04:55:09;2.33;;;2.13;;
6392;SDS011;3229;42.674;23.282;2023-03-01T04:57:37;1.90;;;1.80;;
6392;SDS011;3229;42.674;23.282;2023-03-01T05:00:06;2.10;;;2.00;;
6392;SDS011;3229;42.674;23.282;2023-03-01T05:02:45;2.07;;;1.97;;
6392;SDS011;3229;42.674;23.282;2023-03-01T05:05:18;2.43;;;2.23;;
6392;SDS011;3229;42.674;23.282;2023-03-01T05:07:50;2.80;;;1.80;;
6392;SDS011;3229;42.674;23.282;2023-03-01T05:10:18;2.27;;;2.13;;
6392;SDS011;3229;42.674;23.282;2023-03-01T05:12:45;2.23;;;2.13;;
6392;SDS011;3229;42.674;23.282;2023-03-01T05:15:13;2.07;;;1.97;;
6392;SDS011;3229;42.674;23.282;2023-03-01T05:17:40;2.30;;;2.10;;
6392;SDS011;3229;42.674;23.282;2023-03-01T05:20:08;2.80;;;2.60;;
6392;SDS011;3229;42.674;23.282;2023-03-01T05:22:36;2.10;;;2.00;;
6392;SDS011;3229;42.674;23.282;2023-03-01T05:25:03;2.07;;;1.90;;
6392;SDS011;3229;42.674;23.282;2023-03-01T05:27:32;2.20;;;2.10;;
6392;SDS011;3229;42.674;23.282;2023-03-01T05:29:59;2.10;;;2.00;;
6392;SDS011;3229;42.674;23.282;2023-03-01T05:32:39;2.10;;;2.00;;
6392;SDS011;3229;42.674;23.282;2023-03-01T05:35:08;2.50;;;2.30;;
6392;SDS011;3229;42.674;23.282;2023-03-01T05:37:38;2.40;;;2.30;;
6392;SDS011;3229;42.674;23.282;2023-03-01T05:40:07;2.00;;;1.90;;
6392;SDS011;3229;42.674;23.282;2023-03-01T05:42:41;2.60;;;1.97;;
6392;SDS011;3229;42.674;23.282;2023-03-01T05:45:12;1.90;;;1.80;;
6392;SDS011;3229;42.674;23.282;2023-03-01T05:47:41;2.83;;;2.13;;
6392;SDS011;3229;42.674;23.282;2023-03-01T05:50:13;2.30;;;2.10;;
6392;SDS011;3229;42.674;23.282;2023-03-01T05:52:44;2.17;;;1.90;;
6392;SDS011;3229;42.674;23.282;2023-03-01T05:55:12;2.53;;;2.07;;
6392;SDS011;3229;42.674;23.282;2023-03-01T05:57:38;2.27;;;2.07;;
6392;SDS011;3229;42.674;23.282;2023-03-01T06:00:06;2.43;;;2.20;;
6392;SDS011;3229;42.674;23.282;2023-03-01T06:02:34;2.40;;;2.20;;
6392;SDS011;3229;42.674;23.282;2023-03-01T06:05:04;2.03;;;1.90;;
6392;SDS011;3229;42.674;23.282;2023-03-01T06:07:36;2.30;;;2.10;;
6392;SDS011;3229;42.674;23.282;2023-03-01T06:10:04;2.00;;;1.90;;
6392;SDS011;3229;42.674;23.282;2023-03-01T06:12:32;3.10;;;1.97;;
6392;SDS011;3229;42.674;23.282;2023-03-01T06:15:00;3.00;;;2.10;;
6392;SDS011;3229;42.674;23.282;2023-03-01T06:17:28;2.30;;;2.10;;
6392;SDS011;3229;42.674;23.282;2023-03-01T06:19:56;2.23;;;2.03;;
6392;SDS011;3229;42.674;23.282;2023-03-01T06:22:24;1.90;;;1.80;;
6392;SDS011;3229;42.674;23.282;2023-03-01T06:24:51;2.07;;;1.97;;
6392;SDS011;3229;42.674;23.282;2023-03-01T06:27:18;1.93;;;1.83;;
6392;SDS011;3229;42.674;23.282;2023-03-01T06:29:45;3.97;;;2.50;;
6392;SDS011;3229;42.674;23.282;2023-03-01T06:32:12;3.40;;;2.43;;
6392;SDS011;3229;42.674;23.282;2023-03-01T06:34:39;2.07;;;1.97;;
6392;SDS011;3229;42.674;23.282;2023-03-01T06:37:06;3.17;;;2.53;;
6392;SDS011;3229;42.674;23.282;2023-03-01T06:39:34;2.63;;;2.40;;
6392;SDS011;3229;42.674;23.282;2023-03-01T06:42:01;2.60;;;2.40;;
6392;SDS011;3229;42.674;23.282;2023-03-01T06:44:29;2.43;;;2.23;;
6392;SDS011;3229;42.674;23.282;2023-03-01T06:46:56;4.10;;;2.43;;
6392;SDS011;3229;42.674;23.282;2023-03-01T06:49:23;5.50;;;2.30;;
6392;SDS011;3229;42.674;23.282;2023-03-01T06:51:49;3.43;;;2.10;;
6392;SDS011;3229;42.674;23.282;2023-03-01T06:54:16;3.60;;;2.50;;
6392;SDS011;3229;42.674;23.282;2023-03-01T06:56:47;3.90;;;2.53;;
6392;SDS011;3229;42.674;23.282;2023-03-01T06:59:15;3.97;;;2.37;;
6392;SDS011;3229;42.674;23.282;2023-03-01T07:01:42;2.37;;;2.17;;
6392;SDS011;3229;42.674;23.282;2023-03-01T07:04:09;3.63;;;2.43;;
6392;SDS011;3229;42.674;23.282;2023-03-01T07:06:36;4.47;;;2.27;;
6392;SDS011;3229;42.674;23.282;2023-03-01T07:09:03;2.80;;;2.60;;
6392;SDS011;3229;42.674;23.282;2023-03-01T07:11:30;2.13;;;2.03;;
6392;SDS011;3229;42.674;23.282;2023-03-01T07:13:58;2.50;;;2.30;;
6392;SDS011;3229;42.674;23.282;2023-03-01T07:16:25;2.60;;;2.40;;
6392;SDS011;3229;42.674;23.282;2023-03-01T07:18:52;3.40;;;2.30;;
6392;SDS011;3229;42.674;23.282;2023-03-01T07:21:19;2.87;;;2.40;;
6392;SDS011;3229;42.674;23.282;2023-03-01T07:23:47;2.50;;;2.23;;
6392;SDS011;3229;42.674;23.282;2023-03-01T07:26:14;2.80;;;2.50;;
6392;SDS011;3229;42.674;23.282;2023-03-01T07:28:40;2.93;;;1.80;;
6392;SDS011;3229;42.674;23.282;2023-03-01T07:31:09;2.30;;;2.10;;
6392;SDS011;3229;42.674;23.282;2023-03-01T07:33:36;2.10;;;1.97;;
6392;SDS011;3229;42.674;23.282;2023-03-01T07:36:03;1.93;;;1.83;;
6392;SDS011;3229;42.674;23.282;2023-03-01T07:38:31;2.10;;;1.90;;
6392;SDS011;3229;42.674;23.282;2023-03-01T07:40:57;2.53;;;2.33;;
6392;SDS011;3229;42.674;23.282;2023-03-01T07:43:26;2.40;;;2.20;;
6392;SDS011;3229;42.674;23.282;2023-03-01T07:45:52;2.03;;;1.90;;
6392;SDS011;3229;42.674;23.282;2023-03-01T07:48:21;3.23;;;2.40;;
6392;SDS011;3229;42.674;23.282;2023-03-01T07:50:47;4.17;;;2.27;;
6392;SDS011;3229;42.674;23.282;2023-03-01T07:53:14;2.43;;;2.23;;
6392;SDS011;3229;42.674;23.282;2023-03-01T07:55:41;4.33;;;2.27;;
6392;SDS011;3229;42.674;23.282;2023-03-01T07:58:08;2.90;;;2.30;;
6392;SDS011;3229;42.674;23.282;2023-03-01T08:00:34;2.67;;;2.37;;
6392;SDS011;3229;42.674;23.282;2023-03-01T08:03:01;2.77;;;1.80;;
6392;SDS011;3229;42.674;23.282;2023-03-01T08:05:30;4.43;;;2.33;;
6392;SDS011;3229;42.674;23.282;2023-03-01T08:07:56;3.50;;;2.17;;
6392;SDS011;3229;42.674;23.282;2023-03-01T08:10:23;6.00;;;2.30;;
6392;SDS011;3229;42.674;23.282;2023-03-01T08:12:50;5.17;;;1.97;;
6392;SDS011;3229;42.674;23.282;2023-03-01T08:15:18;2.40;;;2.00;;
6392;SDS011;3229;42.674;23.282;2023-03-01T08:17:46;2.40;;;2.20;;
6392;SDS011;3229;42.674;23.282;2023-03-01T08:20:15;3.43;;;2.13;;
6392;SDS011;3229;42.674;23.282;2023-03-01T08:22:43;3.43;;;2.00;;
6392;SDS011;3229;42.674;23.282;2023-03-01T08:25:10;2.03;;;1.93;;
6392;SDS011;3229;42.674;23.282;2023-03-01T08:27:37;2.60;;;2.27;;
6392;SDS011;3229;42.674;23.282;2023-03-01T08:30:04;2.27;;;2.07;;
6392;SDS011;3229;42.674;23.282;2023-03-01T08:32:35;4.93;;;2.37;;
6392;SDS011;3229;42.674;23.282;2023-03-01T08:35:03;2.87;;;2.10;;
6392;SDS011;3229;42.674;23.282;2023-03-01T08:37:30;2.53;;;2.33;;
6392;SDS011;3229;42.674;23.282;2023-03-01T08:39:59;2.37;;;2.17;;
6392;SDS011;3229;42.674;23.282;2023-03-01T08:42:26;3.80;;;2.70;;
6392;SDS011;3229;42.674;23.282;2023-03-01T08:44:53;4.10;;;2.53;;
6392;SDS011;3229;42.674;23.282;2023-03-01T08:47:21;2.60;;;2.40;;
6392;SDS011;3229;42.674;23.282;2023-03-01T08:49:49;2.77;;;2.57;;
6392;SDS011;3229;42.674;23.282;2023-03-01T08:52:16;4.47;;;2.57;;
6392;SDS011;3229;42.674;23.282;2023-03-01T08:54:43;3.00;;;2.70;;
6392;SDS011;3229;42.674;23.282;2023-03-01T08:57:11;4.40;;;2.70;;
6392;SDS011;3229;42.674;23.282;2023-03-01T08:59:38;3.43;;;2.50;;
6392;SDS011;3229;42.674;23.282;2023-03-01T09:02:05;3.00;;;2.40;;
6392;SDS011;3229;42.674;23.282;2023-03-01T09:04:38;3.33;;;2.43;;
6392;SDS011;3229;42.674;23.282;2023-03-01T09:07:05;2.67;;;2.43;;
6392;SDS011;3229;42.674;23.282;2023-03-01T09:09:32;2.60;;;2.30;;
6392;SDS011;3229;42.674;23.282;2023-03-01T09:11:59;2.50;;;2.30;;
6392;SDS011;3229;42.674;23.282;2023-03-01T09:14:27;2.73;;;2.30;;
6392;SDS011;3229;42.674;23.282;2023-03-01T09:16:54;2.97;;;2.13;;
6392;SDS011;3229;42.674;23.282;2023-03-01T09:19:21;2.30;;;2.10;;
6392;SDS011;3229;42.674;23.282;2023-03-01T09:21:47;2.30;;;2.10;;
6392;SDS011;3229;42.674;23.282;2023-03-01T09:24:19;2.33;;;2.13;;
6392;SDS011;3229;42.674;23.282;2023-03-01T09:26:47;2.20;;;2.10;;
6392;SDS011;3229;42.674;23.282;2023-03-01T09:29:15;2.37;;;2.17;;
6392;SDS011;3229;42.674;23.282;2023-03-01T09:31:44;2.13;;;1.93;;
6392;SDS011;3229;42.674;23.282;2023-03-01T09:34:11;2.40;;;2.20;;
6392;SDS011;3229;42.674;23.282;2023-03-01T09:36:40;2.30;;;2.10;;
6392;SDS011;3229;42.674;23.282;2023-03-01T09:39:07;3.17;;;2.47;;
6392;SDS011;3229;42.674;23.282;2023-03-01T09:41:41;2.47;;;2.27;;
6392;SDS011;3229;42.674;23.282;2023-03-01T09:44:14;3.53;;;2.60;;
6392;SDS011;3229;42.674;23.282;2023-03-01T09:46:52;2.63;;;2.30;;
6392;SDS011;3229;42.674;23.282;2023-03-01T09:49:21;4.03;;;2.83;;
6392;SDS011;3229;42.674;23.282;2023-03-01T09:51:55;2.70;;;2.50;;
6392;SDS011;3229;42.674;23.282;2023-03-01T09:54:24;3.97;;;2.17;;
6392;SDS011;3229;42.674;23.282;2023-03-01T09:56:56;2.53;;;2.30;;
6392;SDS011;3229;42.674;23.282;2023-03-01T09:59:30;2.63;;;2.43;;
6392;SDS011;3229;42.674;23.282;2023-03-01T10:02:18;2.30;;;2.20;;
6392;SDS011;3229;42.674;23.282;2023-03-01T10:04:51;3.33;;;2.50;;
6392;SDS011;3229;42.674;23.282;2023-03-01T10:07:22;2.67;;;2.30;;
6392;SDS011;3229;42.674;23.282;2023-03-01T10:09:58;2.33;;;2.13;;
6392;SDS011;3229;42.674;23.282;2023-03-01T10:12:31;3.13;;;2.30;;
6392;SDS011;3229;42.674;23.282;2023-03-01T10:15:02;2.27;;;2.07;;
6392;SDS011;3229;42.674;23.282;2023-03-01T10:17:37;2.13;;;2.00;;
6392;SDS011;3229;42.674;23.282;2023-03-01T10:20:19;2.27;;;2.17;;
6392;SDS011;3229;42.674;23.282;2023-03-01T10:22:47;2.70;;;2.50;;
6392;SDS011;3229;42.674;23.282;2023-03-01T10:25:21;2.43;;;2.20;;
6392;SDS011;3229;42.674;23.282;2023-03-01T10:27:59;2.20;;;2.10;;
6392;SDS011;3229;42.674;23.282;2023-03-01T10:30:30;5.63;;;2.40;;
6392;SDS011;3229;42.674;23.282;2023-03-01T10:33:05;2.20;;;2.10;;
6392;SDS011;3229;42.674;23.282;2023-03-01T10:35:40;4.47;;;1.97;;
6392;SDS011;3229;42.674;23.282;2023-03-01T10:38:08;2.27;;;2.07;;
6392;SDS011;3229;42.674;23.282;2023-03-01T10:40:36;2.07;;;1.87;;
6392;SDS011;3229;42.674;23.282;2023-03-01T10:43:17;2.60;;;2.10;;
6392;SDS011;3229;42.674;23.282;2023-03-01T10:45:44;2.40;;;2.20;;
6392;SDS011;3229;42.674;23.282;2023-03-01T10:48:13;3.47;;;2.10;;
6392;SDS011;3229;42.674;23.282;2023-03-01T10:50:42;2.03;;;1.83;;
6392;SDS011;3229;42.674;23.282;2023-03-01T10:53:20;2.93;;;1.90;;
6392;SDS011;3229;42.674;23.282;2023-03-01T10:55:57;2.10;;;2.00;;
6392;SDS011;3229;42.674;23.282;2023-03-01T10:58:26;2.60;;;2.40;;
6392;SDS011;3229;42.674;23.282;2023-03-01T11:00:54;2.43;;;2.23;;
6392;SDS011;3229;42.674;23.282;2023-03-01T11:03:24;2.40;;;2.20;;
6392;SDS011;3229;42.674;23.282;2023-03-01T11:05:54;2.17;;;2.03;;
6392;SDS011;3229;42.674;23.282;2023-03-01T11:08:36;2.43;;;2.10;;
6392;SDS011;3229;42.674;23.282;2023-03-01T11:11:13;2.10;;;2.00;;
6392;SDS011;3229;42.674;23.282;2023-03-01T11:16:33;2.50;;;2.30;;
6392;SDS011;3229;42.674;23.282;2023-03-01T11:19:17;2.20;;;2.00;;
6392;SDS011;3229;42.674;23.282;2023-03-01T11:21:56;3.73;;;2.40;;
6392;SDS011;3229;42.674;23.282;2023-03-01T11:24:33;2.70;;;2.43;;
6392;SDS011;3229;42.674;23.282;2023-03-01T11:27:06;1.97;;;1.87;;
6392;SDS011;3229;42.674;23.282;2023-03-01T11:29:43;2.43;;;2.23;;
6392;SDS011;3229;42.674;23.282;2023-03-01T11:32:16;2.97;;;2.40;;
6392;SDS011;3229;42.674;23.282;2023-03-01T11:34:47;2.37;;;2.17;;
6392;SDS011;3229;42.674;23.282;2023-03-01T11:37:21;2.87;;;2.67;;
6392;SDS011;3229;42.674;23.282;2023-03-01T11:39:57;2.53;;;2.30;;
6392;SDS011;3229;42.674;23.282;2023-03-01T11:42:33;2.60;;;2.40;;
6392;SDS011;3229;42.674;23.282;2023-03-01T11:45:10;2.33;;;2.23;;
6392;SDS011;3229;42.674;23.282;2023-03-01T11:47:42;2.50;;;2.30;;
6392;SDS011;3229;42.674;23.282;2023-03-01T11:50:26;2.27;;;2.07;;
6392;SDS011;3229;42.674;23.282;2023-03-01T11:53:01;2.60;;;2.40;;
6392;SDS011;3229;42.674;23.282;2023-03-01T11:55:52;2.60;;;2.40;;
6392;SDS011;3229;42.674;23.282;2023-03-01T12:01:42;2.20;;;2.10;;
6392;SDS011;3229;42.674;23.282;2023-03-01T12:04:22;2.27;;;2.10;;
6392;SDS011;3229;42.674;23.282;2023-03-01T12:07:10;2.40;;;2.20;;
6392;SDS011;3229;42.674;23.282;2023-03-01T12:09:58;2.60;;;2.20;;
6392;SDS011;3229;42.674;23.282;2023-03-01T12:12:48;2.17;;;2.07;;
6392;SDS011;3229;42.674;23.282;2023-03-01T12:21:38;2.50;;;2.30;;
6392;SDS011;3229;42.674;23.282;2023-03-01T12:24:23;2.93;;;2.60;;
6392;SDS011;3229;42.674;23.282;2023-03-01T12:27:12;3.30;;;2.27;;
6392;SDS011;3229;42.674;23.282;2023-03-01T12:29:59;2.67;;;2.47;;
6392;SDS011;3229;42.674;23.282;2023-03-01T12:32:36;2.73;;;2.53;;
6392;SDS011;3229;42.674;23.282;2023-03-01T12:35:22;2.67;;;2.47;;
6392;SDS011;3229;42.674;23.282;2023-03-01T12:38:02;6.00;;;2.57;;
6392;SDS011;3229;42.674;23.282;2023-03-01T12:40:46;3.07;;;2.77;;
6392;SDS011;3229;42.674;23.282;2023-03-01T12:43:32;2.80;;;2.60;;
6392;SDS011;3229;42.674;23.282;2023-03-01T12:46:21;2.57;;;2.37;;
6392;SDS011;3229;42.674;23.282;2023-03-01T12:48:58;2.77;;;2.57;;
6392;SDS011;3229;42.674;23.282;2023-03-01T12:51:31;2.67;;;2.47;;
6392;SDS011;3229;42.674;23.282;2023-03-01T12:54:01;5.97;;;2.60;;
6392;SDS011;3229;42.674;23.282;2023-03-01T12:56:39;3.40;;;3.10;;
6392;SDS011;3229;42.674;23.282;2023-03-01T12:59:09;2.93;;;2.63;;
6392;SDS011;3229;42.674;23.282;2023-03-01T13:01:45;2.97;;;2.70;;
6392;SDS011;3229;42.674;23.282;2023-03-01T13:04:40;2.67;;;2.47;;
6392;SDS011;3229;42.674;23.282;2023-03-01T13:07:23;2.63;;;2.43;;
6392;SDS011;3229;42.674;23.282;2023-03-01T13:09:55;3.70;;;3.00;;
6392;SDS011;3229;42.674;23.282;2023-03-01T13:12:47;3.33;;;2.87;;
6392;SDS011;3229;42.674;23.282;2023-03-01T13:15:28;2.67;;;2.47;;
6392;SDS011;3229;42.674;23.282;2023-03-01T13:18:00;3.67;;;2.53;;
6392;SDS011;3229;42.674;23.282;2023-03-01T13:20:33;3.97;;;2.80;;
6392;SDS011;3229;42.674;23.282;2023-03-01T13:23:12;3.07;;;2.80;;
6392;SDS011;3229;42.674;23.282;2023-03-01T13:26:00;3.40;;;2.90;;
6392;SDS011;3229;42.674;23.282;2023-03-01T13:28:47;2.90;;;2.70;;
6392;SDS011;3229;42.674;23.282;2023-03-01T13:34:48;3.37;;;2.80;;
6392;SDS011;3229;42.674;23.282;2023-03-01T13:37:21;3.37;;;2.50;;
6392;SDS011;3229;42.674;23.282;2023-03-01T13:39:51;3.07;;;2.67;;
6392;SDS011;3229;42.674;23.282;2023-03-01T13:42:31;4.53;;;3.00;;
6392;SDS011;3229;42.674;23.282;2023-03-01T13:45:12;5.03;;;3.00;;
6392;SDS011;3229;42.674;23.282;2023-03-01T13:47:51;2.67;;;2.47;;
6392;SDS011;3229;42.674;23.282;2023-03-01T13:50:24;3.90;;;2.60;;
6392;SDS011;3229;42.674;23.282;2023-03-01T13:52:54;2.80;;;2.60;;
6392;SDS011;3229;42.674;23.282;2023-03-01T13:55:25;2.93;;;2.73;;
6392;SDS011;3229;42.674;23.282;2023-03-01T13:58:03;2.70;;;2.50;;
6392;SDS011;3229;42.674;23.282;2023-03-01T14:00:42;4.20;;;2.70;;
6392;SDS011;3229;42.674;23.282;2023-03-01T14:03:10;3.10;;;2.57;;
6392;SDS011;3229;42.674;23.282;2023-03-01T14:05:39;2.80;;;2.60;;
6392;SDS011;3229;42.674;23.282;2023-03-01T14:08:18;2.87;;;2.67;;
6392;SDS011;3229;42.674;23.282;2023-03-01T14:10:50;2.80;;;2.60;;
6392;SDS011;3229;42.674;23.282;2023-03-01T14:13:32;2.90;;;2.53;;
6392;SDS011;3229;42.674;23.282;2023-03-01T14:16:13;3.60;;;3.10;;
6392;SDS011;3229;42.674;23.282;2023-03-01T14:18:52;3.23;;;2.93;;
6392;SDS011;3229;42.674;23.282;2023-03-01T14:21:30;2.87;;;2.60;;
6392;SDS011;3229;42.674;23.282;2023-03-01T14:23:57;3.40;;;2.77;;
6392;SDS011;3229;42.674;23.282;2023-03-01T14:26:25;3.10;;;2.90;;
6392;SDS011;3229;42.674;23.282;2023-03-01T14:28:51;2.90;;;2.60;;
6392;SDS011;3229;42.674;23.282;2023-03-01T14:31:36;2.90;;;2.70;;
6392;SDS011;3229;42.674;23.282;2023-03-01T14:34:05;2.93;;;2.73;;
6392;SDS011;3229;42.674;23.282;2023-03-01T14:36:33;3.50;;;3.20;;
6392;SDS011;3229;42.674;23.282;2023-03-01T14:39:00;3.73;;;2.73;;
6392;SDS011;3229;42.674;23.282;2023-03-01T14:41:32;2.70;;;2.50;;
6392;SDS011;3229;42.674;23.282;2023-03-01T14:44:01;4.07;;;3.13;;
6392;SDS011;3229;42.674;23.282;2023-03-01T14:46:32;3.20;;;2.90;;
6392;SDS011;3229;42.674;23.282;2023-03-01T14:49:04;4.27;;;2.77;;
6392;SDS011;3229;42.674;23.282;2023-03-01T14:51:36;3.17;;;2.77;;
6392;SDS011;3229;42.674;23.282;2023-03-01T14:54:10;3.77;;;2.73;;
6392;SDS011;3229;42.674;23.282;2023-03-01T14:56:47;3.43;;;2.83;;
6392;SDS011;3229;42.674;23.282;2023-03-01T14:59:14;3.10;;;2.90;;
6392;SDS011;3229;42.674;23.282;2023-03-01T15:01:41;3.10;;;2.80;;
6392;SDS011;3229;42.674;23.282;2023-03-01T15:04:12;2.80;;;2.57;;
6392;SDS011;3229;42.674;23.282;2023-03-01T15:06:40;2.93;;;2.73;;
6392;SDS011;3229;42.674;23.282;2023-03-01T15:09:11;3.33;;;3.00;;
6392;SDS011;3229;42.674;23.282;2023-03-01T15:11:40;4.10;;;3.07;;
6392;SDS011;3229;42.674;23.282;2023-03-01T15:16:54;2.53;;;2.33;;
6392;SDS011;3229;42.674;23.282;2023-03-01T15:19:23;3.20;;;2.90;;
6392;SDS011;3229;42.674;23.282;2023-03-01T15:21:54;3.37;;;2.70;;
6392;SDS011;3229;42.674;23.282;2023-03-01T15:24:23;2.87;;;2.67;;
6392;SDS011;3229;42.674;23.282;2023-03-01T15:26:53;2.90;;;2.60;;
6392;SDS011;3229;42.674;23.282;2023-03-01T15:29:23;2.57;;;2.37;;
6392;SDS011;3229;42.674;23.282;2023-03-01T15:31:56;3.90;;;2.93;;
6392;SDS011;3229;42.674;23.282;2023-03-01T15:34:26;3.00;;;2.67;;
6392;SDS011;3229;42.674;23.282;2023-03-01T15:36:55;3.13;;;2.53;;
6392;SDS011;3229;42.674;23.282;2023-03-01T15:39:27;5.73;;;2.70;;
6392;SDS011;3229;42.674;23.282;2023-03-01T15:42:02;5.27;;;2.83;;